Time;durP1;ratioP1;P1;durP2;ratioP2;P2;SDS_P1;SDS_P2;PMS_P1;PMS_P2;Temp;Humidity;BMP_temperature;BMP_pressure;BME280_temperature;BME280_humidity;BME280_pressure;Samples;Min_cycle;Max_cycle;Signal;HPM_P1;HPM_P2
2021/07/02 00:01:19;;;;;;;25.65;18.67;;;;;;;;;;5035746;28;20040;-70
2021/07/02 00:03:47;;;;;;;22.75;16.60;;;;;;;;;;5065918;28;20031;-70
2021/07/02 00:06:14;;;;;;;25.73;17.58;;;;;;;;;;5033444;28;20037;-70
2021/07/02 00:08:41;;;;;;;25.65;16.75;;;;;;;;;;5042975;28;20052;-70
2021/07/02 00:11:08;;;;;;;29.35;17.40;;;;;;;;;;5034196;28;21297;-70
2021/07/02 00:13:37;;;;;;;20.13;14.45;;;;;;;;;;5036969;28;20460;-70
2021/07/02 00:16:05;;;;;;;22.33;15.48;;;;;;;;;;5042491;28;20051;-70
2021/07/02 00:18:32;;;;;;;18.90;13.90;;;;;;;;;;5060840;28;20032;-70
2021/07/02 00:21:00;;;;;;;20.55;14.38;;;;;;;;;;5035525;28;20516;-71
2021/07/02 00:23:27;;;;;;;21.13;14.95;;;;;;;;;;5063816;28;20028;-71
2021/07/02 00:25:54;;;;;;;21.48;15.60;;;;;;;;;;5035454;28;20033;-70
2021/07/02 00:28:22;;;;;;;21.40;16.08;;;;;;;;;;5044638;28;20119;-71
2021/07/02 00:30:50;;;;;;;20.70;16.10;;;;;;;;;;5036498;28;20025;-70
2021/07/02 00:33:17;;;;;;;19.75;15.45;;;;;;;;;;5047185;28;20096;-70
2021/07/02 00:35:44;;;;;;;15.43;12.10;;;;;;;;;;5040083;28;20075;-70
2021/07/02 00:38:11;;;;;;;10.95;9.48;;;;;;;;;;5058612;28;20497;-70
2021/07/02 00:40:39;;;;;;;11.10;8.63;;;;;;;;;;5055368;28;20026;-71
2021/07/02 00:43:06;;;;;;;10.07;8.63;;;;;;;;;;5037058;28;20037;-71
2021/07/02 00:45:34;;;;;;;9.15;7.53;;;;;;;;;;5050047;28;20075;-71
2021/07/02 00:48:01;;;;;;;11.27;7.88;;;;;;;;;;5038428;28;20477;-71
2021/07/02 00:50:29;;;;;;;10.80;8.48;;;;;;;;;;5062759;28;20085;-71
2021/07/02 00:52:56;;;;;;;7.85;7.05;;;;;;;;;;5057769;28;20029;-71
2021/07/02 00:55:23;;;;;;;9.82;7.75;;;;;;;;;;5049580;28;20172;-71
2021/07/02 00:57:51;;;;;;;7.85;6.30;;;;;;;;;;5040783;28;20029;-71
2021/07/02 01:00:18;;;;;;;8.55;5.43;;;;;;;;;;5053494;28;20021;-71
2021/07/02 01:02:45;;;;;;;7.22;6.47;;;;;;;;;;5056316;28;20028;-71
2021/07/02 01:05:12;;;;;;;10.20;7.43;;;;;;;;;;5064970;28;20021;-71
2021/07/02 01:07:41;;;;;;;10.35;7.07;;;;;;;;;;5052326;28;20108;-71
2021/07/02 01:10:08;;;;;;;9.82;6.25;;;;;;;;;;5016065;28;20037;-70
2021/07/02 01:12:35;;;;;;;8.27;5.75;;;;;;;;;;5047671;28;20029;-72
2021/07/02 01:15:03;;;;;;;11.02;6.75;;;;;;;;;;5030158;28;20098;-70
2021/07/02 01:17:31;;;;;;;8.00;6.40;;;;;;;;;;5044738;28;20039;-69
2021/07/02 01:19:58;;;;;;;11.95;8.73;;;;;;;;;;5044067;28;20167;-69
2021/07/02 01:22:27;;;;;;;8.57;7.15;;;;;;;;;;5071052;28;20029;-69
2021/07/02 01:24:55;;;;;;;7.75;5.95;;;;;;;;;;5052955;28;20115;-71
2021/07/02 01:27:22;;;;;;;7.38;5.90;;;;;;;;;;5046224;28;20029;-71
2021/07/02 01:29:51;;;;;;;10.82;5.90;;;;;;;;;;5049787;28;20017;-70
2021/07/02 01:32:19;;;;;;;8.60;6.72;;;;;;;;;;5051547;28;20116;-70
2021/07/02 01:34:46;;;;;;;9.95;7.22;;;;;;;;;;5051402;28;20128;-71
2021/07/02 01:37:13;;;;;;;7.95;6.28;;;;;;;;;;5050763;28;20074;-71
2021/07/02 01:39:41;;;;;;;8.43;6.85;;;;;;;;;;5071256;28;20070;-70
2021/07/02 01:42:09;;;;;;;7.93;6.32;;;;;;;;;;5048494;28;20067;-70
2021/07/02 01:44:37;;;;;;;8.35;5.60;;;;;;;;;;5070898;28;20397;-71
2021/07/02 01:47:04;;;;;;;8.75;7.00;;;;;;;;;;5067737;28;20029;-71
2021/07/02 01:49:31;;;;;;;8.50;7.15;;;;;;;;;;5053597;28;20055;-70
2021/07/02 01:51:58;;;;;;;9.18;7.03;;;;;;;;;;5031192;28;20084;-71
2021/07/02 01:54:26;;;;;;;9.27;7.13;;;;;;;;;;5051060;28;20025;-70
2021/07/02 01:56:53;;;;;;;9.02;7.00;;;;;;;;;;5066881;28;20484;-71
2021/07/02 01:59:21;;;;;;;9.70;6.60;;;;;;;;;;5074472;28;20343;-71
2021/07/02 02:01:49;;;;;;;7.03;5.50;;;;;;;;;;5063296;28;20103;-71
2021/07/02 02:04:16;;;;;;;8.02;5.57;;;;;;;;;;5046586;28;20033;-69
2021/07/02 02:06:43;;;;;;;8.90;5.00;;;;;;;;;;5053336;28;20059;-69
2021/07/02 02:09:10;;;;;;;7.22;5.00;;;;;;;;;;5055016;28;20043;-69
2021/07/02 02:11:38;;;;;;;5.45;4.55;;;;;;;;;;5065970;28;20024;-69
2021/07/02 02:14:10;;;;;;;4.85;3.50;;;;;;;;;;5047273;28;20032;-69
2021/07/02 02:16:38;;;;;;;4.20;3.60;;;;;;;;;;5065203;28;20032;-69
2021/07/02 02:19:05;;;;;;;4.68;3.45;;;;;;;;;;5057997;28;20037;-69
2021/07/02 02:21:32;;;;;;;3.40;3.00;;;;;;;;;;5050579;28;20028;-69
2021/07/02 02:24:00;;;;;;;6.80;3.00;;;;;;;;;;5056395;28;20769;-69
2021/07/02 02:26:27;;;;;;;4.07;3.13;;;;;;;;;;5050620;28;20033;-70
2021/07/02 02:28:54;;;;;;;4.63;3.63;;;;;;;;;;5052220;28;20025;-69
2021/07/02 02:31:21;;;;;;;4.35;3.00;;;;;;;;;;5052032;28;20500;-70
2021/07/02 02:33:48;;;;;;;4.03;3.45;;;;;;;;;;5044268;28;20045;-70
2021/07/02 02:36:15;;;;;;;3.45;2.75;;;;;;;;;;5062680;28;20032;-70
2021/07/02 02:38:42;;;;;;;4.90;2.75;;;;;;;;;;5057864;28;20028;-69
2021/07/02 02:41:10;;;;;;;4.55;3.47;;;;;;;;;;5058575;28;20016;-70
2021/07/02 02:43:37;;;;;;;7.15;3.10;;;;;;;;;;5057148;28;20036;-69
2021/07/02 02:46:04;;;;;;;4.45;3.33;;;;;;;;;;5057217;28;20029;-70
2021/07/02 02:48:32;;;;;;;4.53;3.05;;;;;;;;;;5053492;28;20037;-70
2021/07/02 02:50:59;;;;;;;5.38;3.55;;;;;;;;;;5051787;28;20032;-69
2021/07/02 02:53:26;;;;;;;3.80;3.30;;;;;;;;;;5052231;28;20025;-69
2021/07/02 02:55:53;;;;;;;3.85;2.85;;;;;;;;;;5047500;28;20517;-70
2021/07/02 02:58:20;;;;;;;5.40;3.25;;;;;;;;;;5053867;28;20021;-69
2021/07/02 03:00:48;;;;;;;3.28;2.88;;;;;;;;;;5036420;28;20032;-69
2021/07/02 03:03:15;;;;;;;3.80;2.83;;;;;;;;;;5054167;28;20028;-69
2021/07/02 03:05:42;;;;;;;3.30;3.00;;;;;;;;;;5033667;28;20367;-69
2021/07/02 03:08:09;;;;;;;4.22;2.55;;;;;;;;;;5055469;28;20044;-70
2021/07/02 03:10:36;;;;;;;3.05;2.75;;;;;;;;;;5052956;28;20021;-70
2021/07/02 03:13:04;;;;;;;5.40;2.80;;;;;;;;;;5059769;28;20115;-69
2021/07/02 03:15:31;;;;;;;3.25;1.98;;;;;;;;;;5048674;28;20036;-70
2021/07/02 03:17:58;;;;;;;2.80;2.35;;;;;;;;;;5048208;28;20538;-69
2021/07/02 03:20:25;;;;;;;3.78;2.88;;;;;;;;;;5025119;28;20035;-69
2021/07/02 03:22:52;;;;;;;2.63;2.03;;;;;;;;;;5051984;28;20026;-69
2021/07/02 03:25:19;;;;;;;3.20;2.08;;;;;;;;;;5049363;28;20024;-69
2021/07/02 03:27:46;;;;;;;4.20;2.15;;;;;;;;;;5050437;28;20385;-70
2021/07/02 03:30:14;;;;;;;3.05;1.95;;;;;;;;;;5047731;28;20040;-70
2021/07/02 03:32:42;;;;;;;5.90;2.30;;;;;;;;;;5017112;28;20029;-70
2021/07/02 03:35:10;;;;;;;3.03;1.67;;;;;;;;;;5051894;28;20045;-70
2021/07/02 03:37:40;;;;;;;2.20;1.40;;;;;;;;;;5037484;28;20091;-70
2021/07/02 03:40:11;;;;;;;4.90;2.40;;;;;;;;;;5048757;28;20024;-69
2021/07/02 03:42:38;;;;;;;4.18;1.60;;;;;;;;;;5025421;28;20024;-69
2021/07/02 03:45:05;;;;;;;4.63;1.30;;;;;;;;;;5050273;28;20021;-70
2021/07/02 03:47:33;;;;;;;2.50;1.13;;;;;;;;;;5041572;28;20040;-70
2021/07/02 03:50:00;;;;;;;5.18;1.70;;;;;;;;;;5039227;28;20032;-69
2021/07/02 03:52:28;;;;;;;2.80;1.50;;;;;;;;;;5045381;28;20033;-70
2021/07/02 03:54:56;;;;;;;2.25;1.30;;;;;;;;;;5043712;28;20772;-70
2021/07/02 03:57:23;;;;;;;2.08;1.00;;;;;;;;;;5049959;28;20083;-70
2021/07/02 03:59:52;;;;;;;2.08;1.40;;;;;;;;;;5044937;28;20018;-70
2021/07/02 04:02:20;;;;;;;2.85;1.20;;;;;;;;;;5017370;28;20040;-70
2021/07/02 04:04:47;;;;;;;1.60;1.25;;;;;;;;;;5036130;28;20033;-70
2021/07/02 04:07:15;;;;;;;2.75;1.15;;;;;;;;;;5027033;28;20049;-72
2021/07/02 04:09:42;;;;;;;2.40;1.13;;;;;;;;;;5054100;28;20067;-71
2021/07/02 04:12:10;;;;;;;6.18;1.33;;;;;;;;;;5032182;28;20028;-70
2021/07/02 04:14:37;;;;;;;2.53;1.15;;;;;;;;;;5036486;28;20059;-71
2021/07/02 04:17:05;;;;;;;2.08;1.60;;;;;;;;;;5035669;28;20061;-71
2021/07/02 04:19:32;;;;;;;3.17;1.33;;;;;;;;;;5042356;28;20444;-71
2021/07/02 04:21:59;;;;;;;3.90;1.00;;;;;;;;;;5037843;28;20021;-71
2021/07/02 04:24:28;;;;;;;2.20;1.02;;;;;;;;;;5032239;28;20037;-71
2021/07/02 04:26:56;;;;;;;2.22;0.98;;;;;;;;;;5045899;28;20017;-71
2021/07/02 04:29:23;;;;;;;3.25;1.02;;;;;;;;;;5037569;28;20414;-70
2021/07/02 04:31:50;;;;;;;2.58;0.80;;;;;;;;;;5034520;28;20489;-71
2021/07/02 04:34:17;;;;;;;1.70;0.77;;;;;;;;;;5035784;28;20044;-71
2021/07/02 04:36:45;;;;;;;1.38;1.02;;;;;;;;;;5026870;28;20032;-70
2021/07/02 04:39:18;;;;;;;5.25;0.82;;;;;;;;;;5035487;28;20051;-72
2021/07/02 04:41:45;;;;;;;2.45;1.00;;;;;;;;;;5037709;28;20597;-71
2021/07/02 04:44:12;;;;;;;1.25;0.60;;;;;;;;;;5031708;28;20033;-71
2021/07/02 04:46:40;;;;;;;1.17;0.73;;;;;;;;;;5047381;28;20056;-71
2021/07/02 04:49:07;;;;;;;2.25;0.85;;;;;;;;;;5047097;28;20401;-69
2021/07/02 04:51:34;;;;;;;1.40;1.23;;;;;;;;;;5030090;28;20027;-72
2021/07/02 04:54:01;;;;;;;2.78;1.02;;;;;;;;;;5055219;28;20020;-71
2021/07/02 04:56:28;;;;;;;1.35;0.50;;;;;;;;;;5057490;28;20017;-73
2021/07/02 04:58:56;;;;;;;2.15;0.70;;;;;;;;;;5052562;28;20557;-73
2021/07/02 05:01:24;;;;;;;1.40;0.70;;;;;;;;;;5060454;28;20477;-71
2021/07/02 05:03:51;;;;;;;1.98;0.90;;;;;;;;;;5047996;28;20029;-70
2021/07/02 05:06:19;;;;;;;2.08;0.80;;;;;;;;;;5039751;28;20452;-71
2021/07/02 05:08:46;;;;;;;1.70;0.47;;;;;;;;;;5039704;28;20029;-71
2021/07/02 05:11:13;;;;;;;2.08;0.90;;;;;;;;;;5050512;28;20123;-71
2021/07/02 05:13:41;;;;;;;0.88;0.65;;;;;;;;;;5041531;28;20362;-71
2021/07/02 05:16:09;;;;;;;1.48;0.40;;;;;;;;;;5045988;28;20418;-71
2021/07/02 05:18:36;;;;;;;0.57;0.43;;;;;;;;;;5049515;28;20048;-71
2021/07/02 05:21:03;;;;;;;1.77;0.47;;;;;;;;;;5049167;28;20049;-69
2021/07/02 05:23:30;;;;;;;1.05;0.40;;;;;;;;;;5057544;28;20070;-71
2021/07/02 05:25:57;;;;;;;2.92;0.35;;;;;;;;;;5056140;28;20116;-69
2021/07/02 05:28:24;;;;;;;0.43;0.22;;;;;;;;;;5048226;28;20050;-70
2021/07/02 05:30:52;;;;;;;2.65;0.63;;;;;;;;;;5060233;28;20028;-70
2021/07/02 05:33:19;;;;;;;0.70;0.40;;;;;;;;;;5062628;28;20047;-70
2021/07/02 05:35:46;;;;;;;0.60;0.20;;;;;;;;;;5067167;28;20447;-70
2021/07/02 05:38:13;;;;;;;0.10;0.08;;;;;;;;;;5040170;28;20397;-70
2021/07/02 05:40:40;;;;;;;1.60;0.15;;;;;;;;;;5039839;28;20117;-71
2021/07/02 05:43:07;;;;;;;1.48;0.77;;;;;;;;;;5042703;28;20055;-70
2021/07/02 05:45:34;;;;;;;1.02;0.30;;;;;;;;;;5040823;28;20035;-70
2021/07/02 05:48:02;;;;;;;0.57;0.20;;;;;;;;;;5054936;28;20032;-70
2021/07/02 05:50:30;;;;;;;0.50;0.30;;;;;;;;;;5047251;28;20021;-70
2021/07/02 05:52:57;;;;;;;0.17;0.17;;;;;;;;;;5024592;28;20036;-71
2021/07/02 05:55:27;;;;;;;0.28;0.10;;;;;;;;;;5031214;28;20370;-71
2021/07/02 05:57:54;;;;;;;0.00;0.00;;;;;;;;;;5050499;28;20036;-70
2021/07/02 06:00:22;;;;;;;2.15;0.30;;;;;;;;;;5042598;28;20507;-70
2021/07/02 06:02:49;;;;;;;1.02;0.20;;;;;;;;;;5054548;28;20043;-70
2021/07/02 06:05:16;;;;;;;0.65;0.30;;;;;;;;;;5054793;28;20017;-70
2021/07/02 06:07:45;;;;;;;0.30;0.10;;;;;;;;;;5051907;28;20036;-70
2021/07/02 06:10:12;;;;;;;1.58;0.20;;;;;;;;;;5031557;28;20029;-70
2021/07/02 06:12:39;;;;;;;0.60;0.20;;;;;;;;;;5037511;28;20452;-70
2021/07/02 06:15:07;;;;;;;1.77;0.28;;;;;;;;;;5041699;28;20068;-70
2021/07/02 06:17:34;;;;;;;2.83;0.20;;;;;;;;;;5042321;28;20533;-70
2021/07/02 06:20:01;;;;;;;2.08;0.63;;;;;;;;;;5033197;28;20047;-70
2021/07/02 06:22:28;;;;;;;1.73;0.93;;;;;;;;;;5054319;28;20021;-70
2021/07/02 06:24:56;;;;;;;18.77;15.60;;;;;;;;;;5057884;28;20020;-72
2021/07/02 06:27:23;;;;;;;2.45;0.75;;;;;;;;;;5036455;28;20033;-71
2021/07/02 06:29:50;;;;;;;0.93;0.35;;;;;;;;;;5037137;28;20033;-71
2021/07/02 06:32:17;;;;;;;1.95;0.20;;;;;;;;;;5043665;28;20142;-71
2021/07/02 06:34:45;;;;;;;0.80;0.10;;;;;;;;;;5063863;28;20115;-71
2021/07/02 06:37:12;;;;;;;1.15;0.40;;;;;;;;;;5054329;28;20028;-71
2021/07/02 06:39:39;;;;;;;1.75;0.68;;;;;;;;;;5044778;28;20036;-71
2021/07/02 06:42:06;;;;;;;1.85;0.93;;;;;;;;;;5036857;28;20228;-71
2021/07/02 06:44:33;;;;;;;3.33;0.50;;;;;;;;;;5058126;28;20048;-70
2021/07/02 06:47:01;;;;;;;1.40;0.43;;;;;;;;;;5029348;28;20498;-69
2021/07/02 06:49:28;;;;;;;2.75;0.52;;;;;;;;;;5051206;28;20029;-69
2021/07/02 06:51:55;;;;;;;1.17;0.40;;;;;;;;;;5041698;28;20532;-71
2021/07/02 06:54:23;;;;;;;0.80;0.50;;;;;;;;;;5036872;28;20024;-68
2021/07/02 06:57:03;;;;;;;0.60;0.30;;;;;;;;;;5037955;28;20419;-70
2021/07/02 06:59:31;;;;;;;1.80;0.40;;;;;;;;;;5041389;28;20679;-70
2021/07/02 07:01:58;;;;;;;2.80;0.88;;;;;;;;;;5043907;28;20065;-70
2021/07/02 07:04:29;;;;;;;0.90;0.50;;;;;;;;;;5027299;28;20028;-70
2021/07/02 07:06:56;;;;;;;2.90;1.48;;;;;;;;;;5041023;28;20414;-70
2021/07/02 07:09:23;;;;;;;1.70;0.40;;;;;;;;;;5046943;28;20017;-70
2021/07/02 07:11:51;;;;;;;1.05;0.60;;;;;;;;;;5040387;28;20170;-69
2021/07/02 07:14:18;;;;;;;1.10;0.43;;;;;;;;;;5039756;28;20055;-69
2021/07/02 07:16:45;;;;;;;1.23;0.40;;;;;;;;;;5040612;28;20044;-70
2021/07/02 07:19:12;;;;;;;2.35;0.50;;;;;;;;;;5048921;28;20021;-70
2021/07/02 07:21:39;;;;;;;2.55;0.70;;;;;;;;;;5049240;28;20040;-69
2021/07/02 07:24:07;;;;;;;0.88;0.68;;;;;;;;;;5053461;28;20037;-69
2021/07/02 07:26:34;;;;;;;1.50;0.60;;;;;;;;;;5046953;28;20033;-70
2021/07/02 07:29:01;;;;;;;1.50;0.60;;;;;;;;;;5041970;28;20044;-70
2021/07/02 07:31:28;;;;;;;1.48;0.63;;;;;;;;;;5024438;28;20040;-70
2021/07/02 07:33:57;;;;;;;3.15;1.05;;;;;;;;;;5046233;28;20041;-70
2021/07/02 07:36:24;;;;;;;4.22;1.38;;;;;;;;;;5043162;28;20025;-70
2021/07/02 07:38:52;;;;;;;2.60;1.30;;;;;;;;;;5063590;28;20036;-70
2021/07/02 07:41:20;;;;;;;2.58;1.13;;;;;;;;;;5066447;28;20099;-70
2021/07/02 07:43:47;;;;;;;3.17;1.23;;;;;;;;;;5056342;28;20025;-69
2021/07/02 07:46:14;;;;;;;6.00;1.15;;;;;;;;;;5049783;28;20484;-70
2021/07/02 07:48:41;;;;;;;2.15;0.95;;;;;;;;;;5044090;28;20033;-69
2021/07/02 07:51:18;;;;;;;2.85;1.13;;;;;;;;;;5051542;28;20355;-69
2021/07/02 07:53:45;;;;;;;2.20;0.93;;;;;;;;;;5048529;28;20013;-69
2021/07/02 07:56:13;;;;;;;3.45;1.42;;;;;;;;;;5049038;28;20033;-69
2021/07/02 07:58:40;;;;;;;2.35;1.15;;;;;;;;;;5037842;28;20150;-69
2021/07/02 08:01:09;;;;;;;2.92;1.60;;;;;;;;;;5044640;28;20513;-69
2021/07/02 08:03:36;;;;;;;5.30;1.63;;;;;;;;;;5039245;28;20039;-69
2021/07/02 08:06:03;;;;;;;4.78;2.25;;;;;;;;;;5051446;28;20029;-69
2021/07/02 08:08:30;;;;;;;5.82;2.70;;;;;;;;;;5055017;28;20029;-69
2021/07/02 08:10:57;;;;;;;8.73;2.20;;;;;;;;;;5038224;28;20048;-69
2021/07/02 08:13:28;;;;;;;3.25;2.15;;;;;;;;;;5048680;28;20030;-72
2021/07/02 08:15:55;;;;;;;3.60;2.40;;;;;;;;;;5041742;28;20120;-71
2021/07/02 08:18:23;;;;;;;3.40;2.28;;;;;;;;;;5032943;28;20384;-71
2021/07/02 08:20:50;;;;;;;4.72;2.50;;;;;;;;;;5041288;28;20028;-72
2021/07/02 08:23:17;;;;;;;9.73;3.95;;;;;;;;;;5023201;28;20060;-72
2021/07/02 08:25:44;;;;;;;8.00;3.47;;;;;;;;;;5049102;28;20044;-72
2021/07/02 08:30:56;;;;;;;6.22;2.58;;;;;;;;;;5047636;28;20448;-72
2021/07/02 08:33:23;;;;;;;3.95;2.05;;;;;;;;;;5034676;28;20409;-72
2021/07/02 08:35:51;;;;;;;6.95;2.97;;;;;;;;;;5039475;28;20494;-72
2021/07/02 08:38:18;;;;;;;4.13;2.00;;;;;;;;;;5063330;28;20047;-72
2021/07/02 08:40:45;;;;;;;3.47;2.28;;;;;;;;;;5038475;28;20608;-72
2021/07/02 08:43:13;;;;;;;5.93;2.25;;;;;;;;;;5015372;28;20796;-73
2021/07/02 08:45:40;;;;;;;9.23;2.65;;;;;;;;;;5041058;28;20035;-72
2021/07/02 08:48:08;;;;;;;7.18;2.53;;;;;;;;;;5032040;28;20478;-73
2021/07/02 08:50:36;;;;;;;5.68;2.97;;;;;;;;;;5049352;28;20021;-72
2021/07/02 08:53:06;;;;;;;7.10;3.45;;;;;;;;;;5033789;28;20465;-73
2021/07/02 08:55:34;;;;;;;8.18;3.70;;;;;;;;;;5046163;28;20057;-73
2021/07/02 08:58:01;;;;;;;4.85;2.75;;;;;;;;;;5064412;28;20025;-73
2021/07/02 09:00:28;;;;;;;3.28;2.30;;;;;;;;;;5037940;28;20039;-72
2021/07/02 09:02:56;;;;;;;4.78;2.50;;;;;;;;;;5037575;28;20041;-72
2021/07/02 09:05:28;;;;;;;2.78;2.05;;;;;;;;;;5040043;28;20039;-71
2021/07/02 09:07:56;;;;;;;4.35;2.17;;;;;;;;;;5045678;28;20127;-71
2021/07/02 09:10:36;;;;;;;3.63;2.45;;;;;;;;;;5064166;28;20035;-69
2021/07/02 09:13:04;;;;;;;4.95;2.40;;;;;;;;;;5040650;28;20058;-70
2021/07/02 09:15:31;;;;;;;5.70;3.40;;;;;;;;;;5040726;28;20033;-69
2021/07/02 09:17:59;;;;;;;7.20;2.47;;;;;;;;;;5068223;28;20481;-72
2021/07/02 09:20:29;;;;;;;5.45;3.05;;;;;;;;;;5048211;28;20108;-72
2021/07/02 09:23:00;;;;;;;5.13;2.97;;;;;;;;;;5053959;28;20195;-72
2021/07/02 09:25:34;;;;;;;6.70;3.90;;;;;;;;;;5027620;28;20029;-71
2021/07/02 09:28:06;;;;;;;6.25;3.25;;;;;;;;;;5053875;28;20466;-70
2021/07/02 09:30:43;;;;;;;6.90;4.03;;;;;;;;;;5046151;28;20533;-69
2021/07/02 09:33:22;;;;;;;7.57;4.50;;;;;;;;;;5057235;28;20151;-70
2021/07/02 09:35:51;;;;;;;9.23;6.82;;;;;;;;;;5055743;28;20025;-70
2021/07/02 09:38:31;;;;;;;7.32;5.20;;;;;;;;;;5062442;28;20526;-70
2021/07/02 09:40:58;;;;;;;6.80;4.60;;;;;;;;;;5052960;28;20112;-71
2021/07/02 09:43:30;;;;;;;7.60;4.65;;;;;;;;;;5036946;28;20041;-71
2021/07/02 09:46:04;;;;;;;6.78;4.00;;;;;;;;;;5034809;28;20021;-71
2021/07/02 09:48:32;;;;;;;8.32;4.20;;;;;;;;;;5042355;28;20040;-71
2021/07/02 09:51:06;;;;;;;5.90;2.67;;;;;;;;;;5044797;28;20037;-71
2021/07/02 09:53:35;;;;;;;4.85;3.10;;;;;;;;;;5021073;28;20033;-72
2021/07/02 09:56:07;;;;;;;3.85;2.50;;;;;;;;;;5041512;28;20085;-72
2021/07/02 09:58:37;;;;;;;3.70;2.33;;;;;;;;;;5046925;28;20030;-71
2021/07/02 10:01:05;;;;;;;5.18;2.92;;;;;;;;;;5032295;28;20140;-72
2021/07/02 10:03:34;;;;;;;5.05;2.58;;;;;;;;;;5039340;28;20048;-71
2021/07/02 10:06:02;;;;;;;4.50;2.55;;;;;;;;;;5053124;28;20033;-71
2021/07/02 10:08:30;;;;;;;3.92;2.55;;;;;;;;;;5038655;28;20048;-71
2021/07/02 10:10:59;;;;;;;6.47;2.95;;;;;;;;;;5061183;28;20381;-70
2021/07/02 10:13:33;;;;;;;5.30;2.72;;;;;;;;;;5043511;28;20120;-71
2021/07/02 10:16:04;;;;;;;4.63;2.90;;;;;;;;;;5058437;28;20055;-71
2021/07/02 10:18:32;;;;;;;6.32;2.85;;;;;;;;;;5038701;28;20363;-71
2021/07/02 10:21:01;;;;;;;3.20;2.15;;;;;;;;;;5033449;28;20045;-71
2021/07/02 10:23:30;;;;;;;4.00;1.98;;;;;;;;;;5039507;28;20052;-70
2021/07/02 10:25:58;;;;;;;2.95;2.00;;;;;;;;;;5053310;28;20036;-70
2021/07/02 10:28:26;;;;;;;3.08;1.90;;;;;;;;;;5058931;28;20086;-72
2021/07/02 10:30:54;;;;;;;2.70;1.75;;;;;;;;;;5064746;28;20040;-71
2021/07/02 10:33:23;;;;;;;2.55;1.10;;;;;;;;;;5056877;28;20033;-75
2021/07/02 10:35:58;;;;;;;1.70;1.40;;;;;;;;;;5044124;28;20048;-74
2021/07/02 10:38:36;;;;;;;2.55;1.20;;;;;;;;;;5022521;28;20037;-74
2021/07/02 10:41:14;;;;;;;2.47;1.20;;;;;;;;;;5059124;28;20099;-73
2021/07/02 10:44:04;;;;;;;4.93;1.15;;;;;;;;;;5047358;28;20025;-72
2021/07/02 10:46:38;;;;;;;3.13;1.20;;;;;;;;;;5012227;28;20102;-72
2021/07/02 10:49:05;;;;;;;2.55;1.48;;;;;;;;;;5017992;28;20041;-71
2021/07/02 10:51:34;;;;;;;1.70;1.15;;;;;;;;;;5032145;28;20087;-71
2021/07/02 10:54:11;;;;;;;1.48;0.90;;;;;;;;;;5022833;28;20092;-71
2021/07/02 10:56:38;;;;;;;3.78;1.15;;;;;;;;;;5026699;28;20052;-71
2021/07/02 10:59:07;;;;;;;2.38;1.40;;;;;;;;;;5033885;28;20398;-71
2021/07/02 11:01:34;;;;;;;2.10;0.98;;;;;;;;;;5034440;28;20020;-70
2021/07/02 11:04:19;;;;;;;2.28;1.40;;;;;;;;;;5029897;28;20052;-70
2021/07/02 11:06:46;;;;;;;1.88;0.90;;;;;;;;;;5049411;28;20009;-70
2021/07/02 11:09:13;;;;;;;1.58;0.80;;;;;;;;;;5044400;28;20025;-71
2021/07/02 11:11:59;;;;;;;2.05;0.98;;;;;;;;;;5033534;28;20478;-70
2021/07/02 11:14:26;;;;;;;2.05;1.10;;;;;;;;;;5029770;28;20174;-69
2021/07/02 11:17:11;;;;;;;1.52;1.05;;;;;;;;;;5021150;28;20086;-70
2021/07/02 11:19:38;;;;;;;1.27;0.93;;;;;;;;;;5026397;28;20120;-70
2021/07/02 11:22:24;;;;;;;1.38;1.05;;;;;;;;;;5017759;28;20129;-70
2021/07/02 11:25:05;;;;;;;3.30;1.40;;;;;;;;;;5043552;28;20025;-71
2021/07/02 11:27:47;;;;;;;4.15;1.45;;;;;;;;;;5027264;28;20030;-71
2021/07/02 11:32:57;;;;;;;2.67;1.67;;;;;;;;;;5044641;28;20674;-71
2021/07/02 11:35:34;;;;;;;3.42;1.40;;;;;;;;;;5023571;28;20056;-70
2021/07/02 11:38:01;;;;;;;2.85;1.58;;;;;;;;;;5020461;28;20098;-70
2021/07/02 11:40:33;;;;;;;3.45;2.05;;;;;;;;;;5026069;28;20116;-70
2021/07/02 11:43:01;;;;;;;2.45;1.55;;;;;;;;;;5023922;28;20039;-71
2021/07/02 11:45:38;;;;;;;4.10;1.60;;;;;;;;;;5023432;28;20029;-71
2021/07/02 11:48:06;;;;;;;3.20;1.70;;;;;;;;;;5018560;28;20025;-71
2021/07/02 11:50:41;;;;;;;4.75;1.88;;;;;;;;;;5020579;28;20355;-71
2021/07/02 11:53:08;;;;;;;3.65;1.58;;;;;;;;;;5040562;28;20026;-71
2021/07/02 11:55:35;;;;;;;3.45;1.60;;;;;;;;;;5028815;28;20025;-70
2021/07/02 11:58:17;;;;;;;2.80;1.80;;;;;;;;;;5023574;28;20132;-70
2021/07/02 12:00:45;;;;;;;3.13;1.88;;;;;;;;;;5042151;28;20021;-70
2021/07/02 12:03:12;;;;;;;3.78;1.67;;;;;;;;;;5026993;28;20536;-71
2021/07/02 12:05:39;;;;;;;9.43;1.85;;;;;;;;;;5026550;28;20036;-71
2021/07/02 12:08:06;;;;;;;2.00;1.23;;;;;;;;;;5021312;28;20113;-70
2021/07/02 12:10:34;;;;;;;3.10;1.65;;;;;;;;;;5024750;28;20033;-72
2021/07/02 12:13:05;;;;;;;3.10;1.30;;;;;;;;;;5017797;28;20030;-71
2021/07/02 12:15:32;;;;;;;2.83;1.70;;;;;;;;;;5029173;28;20116;-71
2021/07/02 12:18:01;;;;;;;2.35;1.50;;;;;;;;;;5022527;28;20156;-71
2021/07/02 12:20:28;;;;;;;3.13;1.48;;;;;;;;;;5042921;28;20029;-71
2021/07/02 12:23:02;;;;;;;2.20;1.40;;;;;;;;;;5026137;28;20441;-70
2021/07/02 12:25:30;;;;;;;4.57;2.47;;;;;;;;;;5026887;28;20421;-70
2021/07/02 12:28:00;;;;;;;3.08;2.22;;;;;;;;;;5032108;28;20029;-70
2021/07/02 12:30:28;;;;;;;4.05;2.20;;;;;;;;;;5023945;28;20048;-70
2021/07/02 12:32:56;;;;;;;3.13;2.33;;;;;;;;;;5042480;28;20100;-71
2021/07/02 12:35:23;;;;;;;3.35;2.60;;;;;;;;;;5018021;28;20063;-71
2021/07/02 12:37:51;;;;;;;4.75;2.67;;;;;;;;;;5042680;28;20036;-71
2021/07/02 12:40:18;;;;;;;3.13;2.33;;;;;;;;;;5042305;28;20029;-70
2021/07/02 12:42:46;;;;;;;3.53;2.28;;;;;;;;;;5040240;28;20079;-71
2021/07/02 12:45:15;;;;;;;3.38;2.60;;;;;;;;;;5021424;28;20041;-70
2021/07/02 12:47:42;;;;;;;3.92;2.67;;;;;;;;;;5019517;28;20038;-71
2021/07/02 12:50:14;;;;;;;5.55;2.72;;;;;;;;;;5036870;28;20032;-71
2021/07/02 12:55:20;;;;;;;3.67;3.00;;;;;;;;;;5042063;28;20509;-71
2021/07/02 12:57:52;;;;;;;3.65;2.40;;;;;;;;;;5026628;28;20025;-71
2021/07/02 13:00:22;;;;;;;5.25;2.85;;;;;;;;;;5038769;28;20029;-71
2021/07/02 13:02:52;;;;;;;4.55;2.97;;;;;;;;;;5051042;28;20431;-70
2021/07/02 13:05:22;;;;;;;6.88;3.25;;;;;;;;;;5024465;28;20075;-71
2021/07/02 13:08:08;;;;;;;4.55;3.13;;;;;;;;;;5042711;28;20026;-70
2021/07/02 13:10:40;;;;;;;6.53;2.90;;;;;;;;;;5028681;28;20029;-70
2021/07/02 13:13:17;;;;;;;6.60;2.75;;;;;;;;;;5036868;28;20017;-71
2021/07/02 13:15:51;;;;;;;4.30;3.25;;;;;;;;;;5028474;28;20025;-70
2021/07/02 13:18:21;;;;;;;3.53;2.47;;;;;;;;;;5037119;28;20032;-71
2021/07/02 13:20:49;;;;;;;4.07;2.28;;;;;;;;;;5040125;28;20266;-71
2021/07/02 13:23:19;;;;;;;5.03;1.85;;;;;;;;;;5030904;28;20029;-71
2021/07/02 13:26:04;;;;;;;4.82;2.33;;;;;;;;;;5046537;28;20067;-71
2021/07/02 13:28:35;;;;;;;3.53;2.30;;;;;;;;;;5029765;28;20111;-70
2021/07/02 13:31:28;;;;;;;3.50;2.28;;;;;;;;;;5022745;28;20389;-71
2021/07/02 13:34:22;;;;;;;4.30;2.20;;;;;;;;;;5028240;28;20381;-71
2021/07/02 13:36:56;;;;;;;4.03;1.70;;;;;;;;;;5017882;28;20074;-71
2021/07/02 13:39:25;;;;;;;3.03;1.90;;;;;;;;;;5026877;28;20029;-71
2021/07/02 13:41:59;;;;;;;2.58;1.60;;;;;;;;;;5017760;28;20037;-71
2021/07/02 13:44:27;;;;;;;3.65;2.13;;;;;;;;;;5034782;28;20026;-71
2021/07/02 13:47:03;;;;;;;2.67;1.85;;;;;;;;;;5022330;28;20136;-70
2021/07/02 13:49:30;;;;;;;2.72;1.90;;;;;;;;;;5023930;28;20105;-71
2021/07/02 13:51:57;;;;;;;2.40;1.58;;;;;;;;;;5039574;28;20029;-71
2021/07/02 13:54:25;;;;;;;3.28;2.05;;;;;;;;;;5027788;28;20428;-71
2021/07/02 13:56:52;;;;;;;3.22;2.22;;;;;;;;;;5034322;28;20033;-70
2021/07/02 13:59:19;;;;;;;3.35;1.70;;;;;;;;;;5026498;28;20121;-70
2021/07/02 14:01:46;;;;;;;3.50;1.92;;;;;;;;;;5049689;28;20686;-71
2021/07/02 14:04:14;;;;;;;2.75;1.63;;;;;;;;;;5028984;28;20044;-71
2021/07/02 14:06:41;;;;;;;2.15;1.35;;;;;;;;;;5024265;28;20024;-70
2021/07/02 14:09:09;;;;;;;2.95;1.73;;;;;;;;;;5020156;28;20528;-70
2021/07/02 14:11:37;;;;;;;2.30;1.50;;;;;;;;;;5017116;28;20125;-70
2021/07/02 14:14:04;;;;;;;3.20;1.58;;;;;;;;;;5050688;28;20022;-70
2021/07/02 14:16:32;;;;;;;2.65;1.85;;;;;;;;;;5033175;28;20453;-70
2021/07/02 14:19:00;;;;;;;3.28;1.75;;;;;;;;;;5028436;28;20078;-71
2021/07/02 14:21:27;;;;;;;3.90;1.60;;;;;;;;;;5022634;28;20033;-70
2021/07/02 14:23:54;;;;;;;3.65;1.75;;;;;;;;;;5045891;28;20033;-70
2021/07/02 14:26:21;;;;;;;2.60;1.52;;;;;;;;;;5028048;28;20132;-70
2021/07/02 14:28:48;;;;;;;2.65;1.60;;;;;;;;;;5016510;28;20116;-71
2021/07/02 14:31:16;;;;;;;1.88;1.17;;;;;;;;;;5030258;28;20493;-71
2021/07/02 14:33:43;;;;;;;2.15;1.15;;;;;;;;;;5039613;28;20030;-71
2021/07/02 14:36:10;;;;;;;1.85;1.10;;;;;;;;;;5023808;28;20489;-70
2021/07/02 14:38:37;;;;;;;2.13;1.08;;;;;;;;;;5039282;28;20025;-70
2021/07/02 14:41:04;;;;;;;3.10;1.20;;;;;;;;;;5030838;28;20036;-71
2021/07/02 14:43:31;;;;;;;1.52;0.93;;;;;;;;;;5028281;28;20029;-70
2021/07/02 14:45:58;;;;;;;3.00;1.15;;;;;;;;;;5042318;28;20032;-71
2021/07/02 14:48:29;;;;;;;2.83;1.27;;;;;;;;;;5029164;28;20041;-70
2021/07/02 14:50:58;;;;;;;2.92;1.15;;;;;;;;;;5039178;28;20066;-71
2021/07/02 14:53:25;;;;;;;1.40;1.00;;;;;;;;;;5038314;28;20103;-71
2021/07/02 14:55:53;;;;;;;1.60;0.90;;;;;;;;;;5016155;28;20490;-70
2021/07/02 14:58:20;;;;;;;1.73;1.00;;;;;;;;;;5018867;28;20508;-70